Springfield, New Hampshire
Current Conditions -  °F | °C
As of 3:53 PM on Tuesday 21 Oct 2014 (Local Time) from KLEB Reporting Station
Light Rain Light Rain  
Wind Chill: 50°   Ceiling: 500
Heat Index: 50°   Visibility: 8mi
Dew Point: 45°   Wind: 5mph
Humidity: 83%   Direction: 360°N
Pressure: 29.97"   Gusts: NA
Location:  43.49°N, 72.03°W
Report Text: KLEB 211953Z 36004KT 8SM -RA BKN005 OVC012 10/07 A2997 RMK AO2 RAB07 CIG 004V008 SLP149 P0001 T01000072
Loading
Personal Weather Stations






























Interactive Weather Map
Tropical Storm Tracking
New forecast layout! Learn more

10-Day Weather Forecast

Advertisements
Track Severe Weather on mobile